Latest Coastal Weather Observations for Yamba

IDN60701

Issued at 6:01 am EST Friday 6 May 2016 (issued every 10 minutes, with the page automatically refreshed every 10 minutes)

About coastal observations | Map of coastal stations | Coastal observations for NSW | Marine services | Other Formats
Station Details ID: 058012 Name: YAMBA PILOT STATION Lat: -29.43 Lon: 153.36 Height: 27.4 m
Data from the previous 72 hours. | See also: Recent months at Yamba
Date/Time
EST
Temp

°C
Wind Pressure Rain
since 9am
mm
Weather Cloud Vis
km
Sea
Height
m
Swell
Dir
 
Speed
knots
Gust
knots
hPa Trend Height
m
Period
s
Dir
06/06:00am 15.8 WSW 6 8 1018.5 - 0.0 - - - - - - -
06/05:30am 16.1 SW 5 7 1018.2 - 0.0 - - - - - - -
06/05:00am 16.3 SW 5 7 1018.1 - 0.0 - - - - - - -
06/04:30am 16.4 SW 5 7 1018.0 - 0.0 - - - - - - -
06/04:00am 16.6 WSW 6 7 1018.0 - 0.0 - - - - - - -
06/03:30am 16.8 WSW 5 7 1018.0 - 0.0 - - - - - - -
06/03:00am 17.0 WSW 5 7 1018.2 - 0.0 - - - - - - -
06/02:30am 17.1 SW 5 7 1018.2 - 0.0 - - - - - - -
06/02:00am 17.3 SW 4 7 1018.6 - 0.0 - - - - - - -
06/01:30am 17.4 SW 4 6 1018.9 - 0.0 - - - - - - -
06/01:00am 17.4 WSW 5 7 1019.0 - 0.0 - - - - - - -
06/12:30am 17.7 WSW 6 8 1019.1 - 0.0 - - - - - - -
06/12:00am 18.2 SW 5 7 1019.1 - 0.0 - - - - - - -
 
Date/Time
EST
Temp

°C
Wind Pressure Rain
since 9am
mm
Weather Cloud Vis
km
Sea
Height
m
Swell
Dir
 
Speed
knots
Gust
knots
hPa Trend Height
m
Period
s
Dir
05/11:30pm 18.5 WSW 6 8 1019.0 - 0.0 - - - - - - -
05/11:00pm 18.8 WSW 6 7 1019.1 - 0.0 - - - - - - -
05/10:30pm 19.9 W 5 6 1019.2 - 0.0 - - - - - - -
05/10:00pm 21.3 NNE 4 5 1019.4 - 0.0 - - - - - - -
05/09:30pm 21.8 NE 5 7 1019.4 - 0.0 - - - - - - -
05/09:00pm 21.9 NE 4 8 1019.5 - 0.0 - - - - - - -
05/08:30pm 21.7 ENE 5 7 1019.5 - 0.0 - - - - - - -
05/08:00pm 21.9 ENE 5 7 1019.4 - 0.0 - - - - - - -
05/07:30pm 21.9 ENE 5 8 1019.2 - 0.0 - - - - - - -
05/07:00pm 21.9 ENE 5 8 1019.1 - 0.0 - - - - - - -
05/06:30pm 21.8 ENE 5 8 1018.9 - 0.0 - - - - - - -
05/06:00pm 21.8 NE 5 9 1018.6 - 0.0 - - - - - - -
05/05:30pm 21.7 E 4 6 1018.4 - 0.0 - - - - - - -
05/05:00pm 21.7 ENE 4 7 1018.2 - 0.0 - - - - - - -
05/04:30pm 22.1 E 5 7 1018.1 - 0.0 - - - - - - -
05/04:00pm 22.6 E 4 7 1018.2 - 0.0 - - - - - - -
05/03:30pm 22.9 E 5 6 1018.1 - 0.0 - - - - - - -
05/03:00pm 23.6 E 4 7 1018.1 - 0.0 - - - - - - -
05/02:30pm 24.0 E 4 6 1018.1 - 0.0 - - - - - - -
05/02:00pm 24.0 ENE 6 7 1018.2 - 0.0 - - - - - - -
05/01:30pm 23.9 ENE 5 6 1018.2 - 0.0 - - - - - - -
05/01:00pm 23.9 ENE 5 6 1018.5 - 0.0 - - - - - - -
05/12:30pm 24.0 ENE 4 6 1018.8 - 0.0 - - - - - - -
05/12:00pm 25.0 NNW 4 6 1019.4 - 0.0 - - - - - - -
05/11:30am 25.1 NW 5 7 1019.7 - 0.0 - - - - - - -
05/11:00am 23.3 W 5 7 1020.2 - 0.0 - - - - - - -
05/10:30am 22.6 W 6 9 1020.6 - 0.0 - - - - - - -
05/10:00am 21.6 WSW 6 9 1021.0 - 0.0 - - - - - - -
05/09:30am 20.1 WSW 6 10 1021.1 - 0.0 - - - - - - -
05/09:00am 18.7 WSW 7 11 1021.0 - 0.0 - - - - - - -
05/08:30am 17.6 WSW 7 11 1021.0 - - - - - - - - -
05/08:00am 16.4 WSW 7 10 1020.8 - - - - - - - - -
05/07:30am 15.4 WSW 7 10 1020.6 - - - - - - - - -
05/07:00am 14.5 WSW 7 11 1020.3 - - - - - - - - -
05/06:30am 14.1 WSW 7 10 1019.8 - - - - - - - - -
05/06:00am 14.2 WSW 8 9 1019.6 - - - - - - - - -
05/05:30am 14.3 WSW 7 10 1019.2 - - - - - - - - -
05/05:00am 14.4 WSW 8 10 1018.9 - - - - - - - - -
05/04:30am 14.6 WSW 7 9 1018.6 - - - - - - - - -
05/04:00am 14.7 WSW 7 9 1018.3 - - - - - - - - -
05/03:30am 14.9 WSW 8 10 1018.2 - - - - - - - - -
05/03:00am 15.2 SW 6 8 1018.0 - 0.0 - - - - - - -
05/02:30am 15.2 WSW 7 9 1018.0 - - - - - - - - -
05/02:00am 15.5 WSW 7 8 1018.2 - - - - - - - - -
05/01:30am 15.8 WSW 6 8 1018.4 - - - - - - - - -
05/01:00am 16.0 WSW 7 9 1018.5 - - - - - - - - -
05/12:30am 16.3 WSW 7 8 1018.7 - - - - - - - - -
05/12:00am 17.0 SW 7 11 1018.7 - - - - - - - - -
 
Date/Time
EST
Temp

°C
Wind Pressure Rain
since 9am
mm
Weather Cloud Vis
km
Sea
Height
m
Swell
Dir
 
Speed
knots
Gust
knots
hPa Trend Height
m
Period
s
Dir
04/11:30pm 17.1 SW 5 7 1018.8 - - - - - - - - -
04/11:00pm 17.3 SW 6 8 1018.8 - - - - - - - - -
04/10:30pm 17.8 SW 6 8 1018.8 - - - - - - - - -
04/10:00pm 17.9 SW 5 8 1018.8 - - - - - - - - -
04/09:30pm 18.6 SW 5 7 1018.8 - - - - - - - - -
04/09:00pm 18.9 WSW 5 7 1018.8 - 0.0 - - - - - - -
04/08:30pm 19.3 WSW 5 7 1018.6 - - - - - - - - -
04/08:00pm 22.0 E 4 6 1018.4 - - - - - - - - -
04/07:30pm 22.0 E 4 6 1018.1 - - - - - - - - -
04/07:00pm 22.0 E 5 7 1017.8 - - - - - - - - -
04/06:30pm 22.0 E 5 7 1017.4 - - - - - - - - -
04/06:00pm 21.9 E 5 7 1016.9 - - - - - - - - -
04/05:30pm 21.7 E 5 6 1016.6 - - - - - - - - -
04/05:00pm 21.6 E 4 5 1016.0 - - - - - - - - -
04/04:30pm 21.9 ESE 4 5 1015.8 - - - - - - - - -
04/04:00pm 22.5 SE 8 9 1015.6 - - - - - - - - -
04/03:30pm 23.0 SE 9 10 1015.3 - - - - - - - - -
04/03:00pm 23.3 SE 9 11 1015.0 - - - - - - - - -
04/02:30pm 23.5 SE 10 12 1014.9 - - - - - - - - -
04/02:00pm 23.8 SE 10 12 1014.8 - - - - - - - - -
04/01:30pm 24.0 SE 11 13 1014.9 - - - - - - - - -
04/01:00pm 24.0 SE 10 13 1015.0 - - - - - - - - -
04/12:30pm 24.0 SE 10 13 1015.3 - - - - - - - - -
04/12:00pm 23.9 SE 10 13 1015.8 - 0.0 - - - - - - -
04/11:30am 24.1 SE 9 12 1016.1 - 0.0 - - - - - - -
04/11:00am 23.8 S 5 8 1016.5 - 0.0 - - - - - - -
04/10:30am 24.1 SSW 4 8 1016.9 - 0.0 - - - - - - -
04/10:00am 23.1 SSW 5 8 1016.8 - 0.0 - - - - - - -
04/09:30am 22.4 WSW 4 6 1016.7 - 0.0 - - - - - - -
04/09:00am 21.0 WSW 5 7 1016.7 - 0.0 - - - - - - -
04/08:30am 19.9 WSW 5 9 1016.7 - 0.0 - - - - - - -
04/08:00am 19.1 WSW 5 7 1016.3 - 0.0 - - - - - - -
04/07:30am 18.0 WSW 5 7 1015.7 - 0.0 - - - - - - -
04/07:00am 17.0 WSW 5 7 1015.4 - 0.0 - - - - - - -
04/06:30am 16.3 WSW 5 7 1015.0 - 0.0 - - - - - - -
04/06:00am 16.5 WSW 5 7 1014.6 - 0.0 - - - - - - -
04/05:30am 16.8 WSW 4 5 1013.7 - 0.0 - - - - - - -
04/05:00am 16.4 WSW 4 6 1013.3 - 0.0 - - - - - - -
04/04:30am 16.9 W 5 7 1013.2 - 0.0 - - - - - - -
04/04:00am 17.4 W 5 7 1013.0 - 0.0 - - - - - - -
04/03:30am 17.5 W 5 8 1012.4 - 0.0 - - - - - - -
04/03:00am 18.0 W 6 8 1012.4 - 0.0 - - - - - - -
04/02:30am 18.1 W 6 9 1012.5 - 0.0 - - - - - - -
04/02:00am 18.1 W 5 8 1012.4 - 0.0 - - - - - - -
04/01:30am 18.0 W 5 8 1012.5 - 0.0 - - - - - - -
04/01:00am 18.3 WNW 5 7 1012.4 - 0.0 - - - - - - -
04/12:30am 18.6 WSW 5 8 1012.2 - 0.0 - - - - - - -
04/12:00am 18.5 W 7 9 1012.2 - 0.0 - - - - - - -
 
Date/Time
EST
Temp

°C
Wind Pressure Rain
since 9am
mm
Weather Cloud Vis
km
Sea
Height
m
Swell
Dir
 
Speed
knots
Gust
knots
hPa Trend Height
m
Period
s
Dir
03/11:30pm 18.9 W 7 9 1012.5 - 0.0 - - - - - - -
03/11:00pm 19.0 W 6 8 1012.7 - 0.0 - - - - - - -
03/10:30pm 19.1 W 6 9 1012.8 - 0.0 - - - - - - -
03/10:00pm 18.9 WNW 6 8 1012.8 - 0.0 - - - - - - -
03/09:30pm 19.8 W 6 8 1012.6 - 0.0 - - - - - - -
03/09:00pm 19.9 W 8 10 1012.6 - 0.0 - - - - - - -
03/08:30pm 20.3 W 6 8 1012.4 - 0.0 - - - - - - -
03/08:00pm 20.5 WNW 6 8 1012.3 - 0.0 - - - - - - -
03/07:30pm 20.8 WNW 7 8 1012.1 - 0.0 - - - - - - -
03/07:00pm 21.1 NW 4 7 1011.7 - 0.0 - - - - - - -
03/06:30pm 21.7 N 3 8 1010.9 - 0.0 - - - - - - -
03/06:00pm 22.4 NNE 5 7 1010.6 - 0.0 - - - - - - -
03/05:30pm 22.6 NE 4 6 1010.2 - 0.0 - - - - - - -
03/05:00pm 22.8 E 4 6 1009.7 - 0.0 - - - - - - -
03/04:30pm 23.0 E 5 7 1009.5 - 0.0 - - - - - - -
03/04:00pm 23.5 E 6 8 1009.5 - 0.0 - - - - - - -
03/03:30pm 23.8 ESE 4 6 1009.4 - 0.0 - - - - - - -
03/03:00pm 25.5 N 4 7 1009.6 - 0.0 - - - - - - -
03/02:30pm 27.3 WNW 5 10 1009.5 - 0.0 - - - - - - -
03/02:00pm 26.8 W 6 10 1009.7 - 0.0 - - - - - - -
03/01:30pm 26.5 W 7 11 1010.2 - 0.0 - - - - - - -
03/01:00pm 26.5 W 6 12 1010.6 - 0.0 - - - - - - -
03/12:30pm 26.1 WNW 7 11 1011.2 - 0.0 - - - - - - -
03/12:00pm 25.3 WNW 6 9 1011.6 - 0.0 - - - - - - -
03/11:30am 24.5 W 5 9 1012.0 - 0.0 - - - - - - -
03/11:00am 23.6 W 6 10 1012.4 - 0.0 - - - - - - -
03/10:30am 23.6 WNW 6 9 1013.0 - 0.0 - - - - - - -
03/10:00am 22.7 WNW 6 10 1013.3 - 0.0 - - - - - - -
03/09:30am 21.2 WNW 7 10 1013.4 - 0.0 - - - - - - -
03/09:00am 20.1 NW 7 11 1013.7 - 3.8 - - - - - - -
03/08:30am 19.0 WNW 7 10 1013.9 - 3.8 - - - - - - -
03/08:00am 18.1 W 8 13 1013.9 - 3.8 - - - - - - -
03/07:30am 17.7 W 8 12 1013.6 - 3.8 - - - - - - -
03/07:00am 17.3 W 7 9 1013.4 - 3.8 - - - - - - -
03/06:30am 17.0 WNW 6 8 1013.4 - 3.8 - - - - - - -

Other Formats:

Comma delimited format used in spreadsheet applications
http://www.bom.gov.au/fwo/IDN60701/IDN60701.94589.axf

JavaScript Object Notation format (JSON) in row-major order
http://www.bom.gov.au/fwo/IDN60701/IDN60701.94589.json